createdAt,value
2023-11-20T00:00:26.163Z,25.07
2023-11-20T00:02:53.541Z,28.15
2023-11-20T00:05:21.056Z,30.02
2023-11-20T00:07:48.551Z,25.63
2023-11-20T00:10:15.968Z,26.00
2023-11-20T00:12:43.395Z,24.00
2023-11-20T00:15:10.989Z,27.42
2023-11-20T00:17:38.600Z,28.63
2023-11-20T00:20:07.635Z,29.67
2023-11-20T00:22:35.141Z,28.58
2023-11-20T00:25:02.897Z,29.37
2023-11-20T00:27:30.408Z,29.70
2023-11-20T00:29:57.773Z,30.73
2023-11-20T00:32:25.200Z,28.40
2023-11-20T00:34:52.603Z,31.00
2023-11-20T00:37:20.094Z,28.83
2023-11-20T00:39:47.582Z,32.42
2023-11-20T00:42:15.012Z,31.40
2023-11-20T00:44:42.440Z,32.58
2023-11-20T00:47:10.298Z,29.95
2023-11-20T00:49:38.958Z,27.47
2023-11-20T00:52:06.558Z,32.85
2023-11-20T00:54:33.950Z,32.10
2023-11-20T00:57:01.295Z,29.58
2023-11-20T00:59:28.636Z,31.65
2023-11-20T01:01:56.021Z,32.17
2023-11-20T01:04:24.224Z,32.95
2023-11-20T01:06:52.401Z,31.25
2023-11-20T01:09:20.547Z,33.35
2023-11-20T01:11:47.903Z,32.63
2023-11-20T01:14:15.326Z,36.97
2023-11-20T01:16:42.926Z,33.17
2023-11-20T01:19:10.345Z,32.60
2023-11-20T01:21:39.047Z,33.50
2023-11-20T01:24:07.807Z,30.20
2023-11-20T01:26:37.201Z,32.43
2023-11-20T01:29:04.624Z,32.30
2023-11-20T01:31:32.128Z,30.83
2023-11-20T01:33:59.789Z,33.28
2023-11-20T01:36:27.420Z,33.30
2023-11-20T01:38:54.784Z,31.07
2023-11-20T01:41:22.229Z,30.58
2023-11-20T01:43:49.623Z,32.55
2023-11-20T01:46:17.044Z,30.80
2023-11-20T01:48:46.309Z,28.75
2023-11-20T01:51:14.173Z,31.53
2023-11-20T01:53:41.558Z,32.33
2023-11-20T01:56:09.415Z,36.00
2023-11-20T01:58:37.297Z,31.63
2023-11-20T02:01:05.286Z,31.90
2023-11-20T02:03:33.656Z,30.23
2023-11-20T02:06:01.123Z,32.78
2023-11-20T02:08:31.382Z,30.67
2023-11-20T02:11:03.161Z,31.67
2023-11-20T02:13:30.973Z,31.70
2023-11-20T02:15:58.380Z,31.53
2023-11-20T02:18:32.771Z,34.13
2023-11-20T02:21:00.230Z,33.85
2023-11-20T02:23:27.688Z,36.03
2023-11-20T02:26:25.313Z,32.72
2023-11-20T02:29:14.980Z,33.13
2023-11-20T02:31:43.061Z,28.73
2023-11-20T02:34:10.784Z,36.72
2023-11-20T02:36:38.173Z,32.40
2023-11-20T02:39:05.564Z,31.92
2023-11-20T02:41:32.962Z,29.93
2023-11-20T02:44:00.284Z,36.65
2023-11-20T02:46:27.653Z,36.72
2023-11-20T02:48:55.026Z,31.40
2023-11-20T02:51:22.383Z,34.35
2023-11-20T02:53:49.766Z,31.57
2023-11-20T02:56:18.111Z,31.35
2023-11-20T02:58:45.488Z,30.65
2023-11-20T03:01:13.013Z,32.38
2023-11-20T03:03:41.409Z,29.80
2023-11-20T03:06:08.926Z,34.10
2023-11-20T03:08:36.357Z,31.88
2023-11-20T03:11:04.025Z,32.00
2023-11-20T03:13:31.329Z,30.13
2023-11-20T03:15:58.943Z,32.65
2023-11-20T03:18:26.455Z,31.90
2023-11-20T03:20:53.806Z,33.75
2023-11-20T03:23:21.133Z,33.28
2023-11-20T03:25:48.421Z,34.45
2023-11-20T03:28:16.542Z,29.67
2023-11-20T03:30:44.476Z,33.83
2023-11-20T03:33:11.867Z,36.28
2023-11-20T03:35:39.216Z,34.70
2023-11-20T03:38:06.696Z,41.95
2023-11-20T03:40:34.923Z,82.57
2023-11-20T03:43:02.255Z,72.73
2023-11-20T03:45:29.611Z,67.10
2023-11-20T03:47:56.952Z,59.90
2023-11-20T03:50:24.328Z,55.35
2023-11-20T03:52:52.557Z,57.97
2023-11-20T03:55:19.951Z,50.40
2023-11-20T03:57:47.682Z,52.03
2023-11-20T04:00:15.543Z,52.60
2023-11-20T04:02:43.025Z,49.67
2023-11-20T04:05:10.711Z,38.88
2023-11-20T04:07:39.462Z,38.33
2023-11-20T04:10:09.319Z,38.80
2023-11-20T04:12:36.790Z,43.15
2023-11-20T04:15:04.396Z,39.83
2023-11-20T04:17:34.567Z,38.28
2023-11-20T04:20:03.969Z,39.23
2023-11-20T04:22:31.696Z,39.05
2023-11-20T04:25:00.119Z,42.60
2023-11-20T04:27:27.741Z,34.55
2023-11-20T04:29:55.253Z,33.33
2023-11-20T04:32:23.168Z,35.17
2023-11-20T04:34:50.524Z,37.58
2023-11-20T04:37:17.830Z,36.05
2023-11-20T04:39:46.067Z,31.83
2023-11-20T04:42:13.452Z,34.15
2023-11-20T04:44:41.059Z,37.03
2023-11-20T04:47:09.769Z,32.08
2023-11-20T04:49:38.775Z,34.03
2023-11-20T04:52:06.373Z,33.67
2023-11-20T04:54:34.754Z,32.72
2023-11-20T04:57:02.144Z,32.43
2023-11-20T04:59:29.495Z,29.60
2023-11-20T05:01:57.366Z,29.45
2023-11-20T05:04:24.779Z,26.85
2023-11-20T05:06:52.150Z,25.73
2023-11-20T05:09:19.555Z,33.23
2023-11-20T05:11:48.066Z,29.92
2023-11-20T05:14:15.455Z,31.63
2023-11-20T05:16:42.814Z,32.55
2023-11-20T05:19:10.271Z,31.83
2023-11-20T05:21:37.745Z,32.73
2023-11-20T05:24:05.471Z,31.45
2023-11-20T05:26:32.935Z,31.63
2023-11-20T05:29:01.084Z,26.92
2023-11-20T05:31:28.540Z,28.52
2023-11-20T05:33:56.271Z,27.27
2023-11-20T05:36:23.724Z,28.77
2023-11-20T05:38:51.166Z,27.58
2023-11-20T05:41:18.529Z,25.38
2023-11-20T05:43:45.865Z,26.02
2023-11-20T05:46:14.295Z,25.20
2023-11-20T05:48:41.825Z,28.90
2023-11-20T05:51:09.275Z,29.38
2023-11-20T05:53:36.662Z,25.65
2023-11-20T05:56:04.905Z,25.73
2023-11-20T05:58:32.270Z,25.73
2023-11-20T06:00:59.777Z,26.52
2023-11-20T06:03:27.929Z,35.97
2023-11-20T06:05:55.395Z,25.50
2023-11-20T06:08:24.436Z,25.85
2023-11-20T06:10:52.161Z,32.33
2023-11-20T06:13:20.131Z,31.95
2023-11-20T06:15:55.441Z,29.05
2023-11-20T06:18:38.435Z,30.20
2023-11-20T06:21:05.990Z,28.95
2023-11-20T06:23:33.352Z,32.07
2023-11-20T06:26:00.979Z,35.80
2023-11-20T06:28:30.145Z,31.63
2023-11-20T06:30:57.645Z,32.80
2023-11-20T06:33:32.697Z,33.42
2023-11-20T06:36:00.294Z,31.20
2023-11-20T06:38:43.511Z,35.40
2023-11-20T06:41:10.970Z,32.83
2023-11-20T06:43:38.637Z,34.85
2023-11-20T06:46:06.680Z,36.47
2023-11-20T06:48:42.613Z,36.47
2023-11-20T06:51:09.981Z,32.10
2023-11-20T06:53:37.339Z,35.20
2023-11-20T06:56:06.202Z,35.03
2023-11-20T06:58:36.466Z,41.03
2023-11-20T07:01:06.202Z,32.07
2023-11-20T07:03:33.693Z,36.08
2023-11-20T07:06:01.161Z,32.17
2023-11-20T07:08:28.572Z,32.97
2023-11-20T07:10:56.154Z,33.15
2023-11-20T07:13:47.116Z,33.50
2023-11-20T07:16:21.357Z,37.10
2023-11-20T07:19:06.366Z,37.85
2023-11-20T07:21:37.584Z,41.50
2023-11-20T07:24:08.386Z,54.15
2023-11-20T07:26:56.810Z,42.97
2023-11-20T07:29:28.652Z,38.00
2023-11-20T07:32:02.631Z,40.53
2023-11-20T07:34:43.077Z,38.83
2023-11-20T07:37:11.141Z,34.90
2023-11-20T07:39:39.005Z,38.50
2023-11-20T07:42:07.767Z,36.40
2023-11-20T07:44:41.183Z,42.10
2023-11-20T07:47:08.661Z,41.50
2023-11-20T07:49:40.618Z,36.97
2023-11-20T07:54:55.367Z,38.90
2023-11-20T07:57:27.370Z,40.80
2023-11-20T08:02:44.252Z,46.42
2023-11-20T08:05:11.908Z,50.13
2023-11-20T08:07:39.446Z,44.28
2023-11-20T08:10:07.532Z,44.83
2023-11-20T08:12:35.176Z,42.15
2023-11-20T08:15:04.074Z,41.10
2023-11-20T08:17:32.106Z,37.77
2023-11-20T08:20:02.342Z,39.40
2023-11-20T08:22:30.418Z,38.70
2023-11-20T08:24:58.685Z,34.85
2023-11-20T08:27:26.109Z,34.95
2023-11-20T08:29:55.330Z,34.80
2023-11-20T08:32:22.872Z,40.55
2023-11-20T08:34:53.444Z,39.42
2023-11-20T08:37:21.016Z,37.63
2023-11-20T08:39:48.933Z,35.90
2023-11-20T08:42:16.689Z,41.33
2023-11-20T08:44:44.089Z,39.65
2023-11-20T08:47:12.921Z,39.72
2023-11-20T08:49:41.709Z,37.88
2023-11-20T08:52:13.934Z,39.92
2023-11-20T08:54:42.674Z,37.97
2023-11-20T08:57:09.976Z,41.50
2023-11-20T08:59:37.656Z,39.70
2023-11-20T09:02:05.261Z,39.10
2023-11-20T09:04:32.662Z,39.17
2023-11-20T09:07:00.165Z,41.53
2023-11-20T09:09:27.593Z,39.22
2023-11-20T09:11:54.893Z,42.35
2023-11-20T09:14:22.219Z,43.30
2023-11-20T09:16:49.697Z,41.28
2023-11-20T09:19:17.207Z,38.67
2023-11-20T09:21:45.032Z,36.20
2023-11-20T09:24:12.437Z,38.58
2023-11-20T09:26:42.554Z,34.53
2023-11-20T09:29:11.412Z,35.45
2023-11-20T09:31:38.980Z,33.03
2023-11-20T09:34:07.811Z,31.05
2023-11-20T09:36:38.288Z,30.48
2023-11-20T09:39:31.466Z,27.70
2023-11-20T09:44:47.691Z,35.07
2023-11-20T09:47:16.601Z,33.63
2023-11-20T09:49:45.202Z,32.35
2023-11-20T09:52:12.714Z,27.42
2023-11-20T09:54:42.261Z,27.52
2023-11-20T09:57:13.444Z,26.90
2023-11-20T09:59:40.901Z,26.75
2023-11-20T10:02:08.337Z,24.13
2023-11-20T10:04:35.821Z,26.80
2023-11-20T10:07:08.429Z,31.45
2023-11-20T10:09:35.856Z,30.53
2023-11-20T10:12:06.193Z,30.20
2023-11-20T10:14:33.575Z,32.83
2023-11-20T10:17:01.244Z,31.30
2023-11-20T10:19:28.732Z,30.92
2023-11-20T10:21:56.185Z,30.07
2023-11-20T10:24:26.692Z,33.88
2023-11-20T10:26:57.219Z,33.65
2023-11-20T10:29:29.781Z,33.67
2023-11-20T10:31:59.921Z,35.00
2023-11-20T10:34:47.713Z,34.23
2023-11-20T10:37:15.762Z,38.22
2023-11-20T10:39:43.153Z,35.92
2023-11-20T10:42:12.296Z,38.78
2023-11-20T10:44:39.749Z,37.03
2023-11-20T10:47:08.504Z,33.07
2023-11-20T10:49:36.133Z,36.42
2023-11-20T10:52:07.191Z,37.65
2023-11-20T10:54:48.270Z,36.90
2023-11-20T10:57:15.773Z,38.92
2023-11-20T10:59:43.098Z,33.73
2023-11-20T11:02:13.851Z,38.22
2023-11-20T11:04:41.351Z,38.80
2023-11-20T11:07:10.899Z,35.75
2023-11-20T11:09:38.193Z,35.42
2023-11-20T11:12:06.515Z,35.70
2023-11-20T11:14:36.791Z,35.78
2023-11-20T11:18:12.733Z,36.08
2023-11-20T11:20:48.347Z,35.58
2023-11-20T11:23:15.849Z,35.65
2023-11-20T11:26:27.081Z,35.53
2023-11-20T11:29:03.167Z,35.03
2023-11-20T11:31:40.297Z,36.53
2023-11-20T11:34:34.289Z,40.13
2023-11-20T11:37:22.038Z,36.60
2023-11-20T11:40:11.272Z,35.80
2023-11-20T11:42:42.852Z,37.15
2023-11-20T11:45:14.910Z,41.42
2023-11-20T11:47:44.747Z,39.13
2023-11-20T11:50:12.334Z,36.40
2023-11-20T11:52:39.742Z,43.40
2023-11-20T11:55:13.580Z,36.60
2023-11-20T11:57:41.172Z,41.78
2023-11-20T12:00:32.404Z,38.10
2023-11-20T12:03:10.706Z,41.85
2023-11-20T12:05:57.136Z,45.90
2023-11-20T12:08:25.943Z,39.63
2023-11-20T12:10:55.760Z,41.33
2023-11-20T12:14:10.806Z,43.65
2023-11-20T12:16:38.496Z,42.17
2023-11-20T12:19:06.088Z,38.73
2023-11-20T12:21:33.581Z,36.80
2023-11-20T12:24:01.207Z,39.22
2023-11-20T12:26:28.548Z,42.90
2023-11-20T12:28:56.156Z,43.13
2023-11-20T12:31:23.649Z,38.60
2023-11-20T12:34:06.010Z,39.22
2023-11-20T12:36:33.360Z,36.30
2023-11-20T12:39:01.369Z,32.38
2023-11-20T12:41:32.331Z,35.72
2023-11-20T12:44:02.918Z,33.97
2023-11-20T12:46:30.439Z,33.25
2023-11-20T12:48:57.913Z,34.55
2023-11-20T12:51:25.683Z,33.28
2023-11-20T12:53:53.050Z,32.97
2023-11-20T12:56:20.511Z,35.40
2023-11-20T12:58:54.558Z,30.90
2023-11-20T13:01:24.098Z,33.67
2023-11-20T13:03:52.264Z,35.55
2023-11-20T13:06:19.692Z,34.22
2023-11-20T13:08:47.036Z,36.70
2023-11-20T13:11:14.729Z,35.85
2023-11-20T13:13:42.731Z,36.60
2023-11-20T13:16:21.088Z,38.80
2023-11-20T13:18:53.490Z,37.95
2023-11-20T13:21:24.350Z,34.60
2023-11-20T13:24:02.068Z,38.08
2023-11-20T13:30:14.477Z,40.17
2023-11-20T13:32:42.170Z,41.05
2023-11-20T13:35:09.777Z,41.67
2023-11-20T13:37:37.408Z,40.10
2023-11-20T13:40:08.576Z,40.03
2023-11-20T13:42:36.491Z,37.00
2023-11-20T13:45:06.516Z,36.78
2023-11-20T13:47:37.742Z,41.17
2023-11-20T13:50:05.410Z,37.33
2023-11-20T13:52:32.747Z,37.25
2023-11-20T13:55:00.321Z,41.88
2023-11-20T13:57:27.698Z,41.00
2023-11-20T13:59:56.449Z,45.27
2023-11-20T14:02:24.248Z,43.83
2023-11-20T14:04:51.793Z,47.80
2023-11-20T14:07:19.189Z,43.33
2023-11-20T14:09:46.561Z,45.65
2023-11-20T14:12:17.030Z,43.57
2023-11-20T14:14:44.952Z,47.03
2023-11-20T14:17:15.963Z,44.35
2023-11-20T14:19:43.460Z,45.30
2023-11-20T14:22:10.970Z,41.10
2023-11-20T14:24:38.359Z,42.97
2023-11-20T14:27:09.035Z,41.70
2023-11-20T14:29:36.462Z,43.20
2023-11-20T14:32:03.831Z,42.17
2023-11-20T14:34:31.267Z,43.40
2023-11-20T14:36:58.877Z,41.90
2023-11-20T14:39:26.275Z,43.45
2023-11-20T14:41:55.099Z,44.58
2023-11-20T14:44:24.816Z,45.40
2023-11-20T14:46:53.654Z,41.60
2023-11-20T14:49:21.097Z,43.77
2023-11-20T14:51:51.280Z,42.90
2023-11-20T14:54:18.635Z,46.63
2023-11-20T14:56:47.441Z,44.92
2023-11-20T14:59:17.766Z,41.15
2023-11-20T15:01:45.201Z,47.13
2023-11-20T15:04:12.798Z,47.10
2023-11-20T15:06:40.237Z,44.30
2023-11-20T15:09:09.361Z,45.85
2023-11-20T15:11:36.826Z,43.25
2023-11-20T15:14:04.278Z,45.27
2023-11-20T15:16:31.696Z,43.97
2023-11-20T15:19:01.874Z,44.22
2023-11-20T15:21:29.187Z,45.40
2023-11-20T15:23:58.048Z,45.75
2023-11-20T15:26:25.383Z,45.17
2023-11-20T15:28:52.850Z,45.15
2023-11-20T15:31:20.372Z,43.47
2023-11-20T15:33:47.755Z,40.83
2023-11-20T15:36:15.647Z,43.85
2023-11-20T15:38:44.454Z,45.73
2023-11-20T15:41:12.149Z,49.10
2023-11-20T15:43:39.513Z,44.35
2023-11-20T15:46:14.179Z,47.00
2023-11-20T15:48:49.164Z,45.45
2023-11-20T15:51:16.548Z,47.63
2023-11-20T15:53:43.880Z,45.25
2023-11-20T15:56:11.387Z,45.72
2023-11-20T15:58:38.813Z,46.20
2023-11-20T16:01:09.281Z,49.72
2023-11-20T16:03:36.838Z,51.87
2023-11-20T16:06:05.209Z,50.20
2023-11-20T16:08:33.036Z,51.13
2023-11-20T16:11:00.840Z,49.35
2023-11-20T16:13:28.180Z,54.13
2023-11-20T16:15:55.601Z,54.67
2023-11-20T16:18:23.220Z,53.70
2023-11-20T16:20:50.599Z,53.88
2023-11-20T16:23:17.974Z,57.20
2023-11-20T16:25:48.376Z,57.90
2023-11-20T16:28:16.212Z,60.23
2023-11-20T16:30:43.788Z,58.22
2023-11-20T16:33:11.124Z,58.67
2023-11-20T16:35:38.570Z,59.42
2023-11-20T16:38:05.955Z,60.95
2023-11-20T16:40:35.990Z,56.00
2023-11-20T16:43:03.676Z,57.50
2023-11-20T16:45:31.010Z,57.55
2023-11-20T16:47:58.378Z,56.50
2023-11-20T16:50:25.721Z,53.58
2023-11-20T16:52:53.031Z,58.83
2023-11-20T16:55:20.380Z,70.93
2023-11-20T16:57:47.801Z,60.90
2023-11-20T17:00:15.762Z,51.03
2023-11-20T17:02:46.595Z,51.65
2023-11-20T17:05:14.429Z,47.53
2023-11-20T17:07:42.166Z,49.72
2023-11-20T17:10:09.985Z,49.75
2023-11-20T17:12:37.612Z,55.17
2023-11-20T17:15:05.922Z,62.53
2023-11-20T17:17:33.531Z,54.10
2023-11-20T17:20:01.326Z,56.42
2023-11-20T17:22:29.290Z,56.40
2023-11-20T17:24:57.351Z,53.78
2023-11-20T17:27:25.203Z,53.33
2023-11-20T17:29:52.698Z,48.87
2023-11-20T17:32:20.105Z,52.55
2023-11-20T17:34:47.618Z,55.60
2023-11-20T17:37:14.984Z,53.00
2023-11-20T17:39:42.447Z,53.70
2023-11-20T17:42:10.626Z,52.70
2023-11-20T17:44:42.900Z,58.08
2023-11-20T17:47:13.541Z,58.78
2023-11-20T17:49:43.735Z,57.05
2023-11-20T17:52:11.434Z,58.30
2023-11-20T17:54:39.780Z,59.93
2023-11-20T17:57:17.647Z,55.75
2023-11-20T17:59:48.736Z,57.17
2023-11-20T18:02:16.367Z,61.53
2023-11-20T18:04:44.465Z,59.25
2023-11-20T18:07:12.184Z,60.13
2023-11-20T18:09:39.594Z,60.53
2023-11-20T18:12:08.189Z,58.65
2023-11-20T18:14:35.577Z,60.38
2023-11-20T18:17:03.135Z,64.25
2023-11-20T18:19:30.519Z,62.37
2023-11-20T18:21:57.919Z,62.63
2023-11-20T18:24:25.254Z,64.70
2023-11-20T18:26:52.601Z,66.95
2023-11-20T18:29:19.905Z,64.10
2023-11-20T18:31:47.398Z,60.93
2023-11-20T18:34:14.868Z,65.90
2023-11-20T18:36:43.317Z,65.45
2023-11-20T18:39:11.748Z,65.22
2023-11-20T18:41:42.643Z,67.63
2023-11-20T18:44:10.022Z,63.30
2023-11-20T18:46:37.641Z,67.78
2023-11-20T18:49:05.153Z,69.20
2023-11-20T18:51:33.811Z,69.25
2023-11-20T18:54:01.243Z,71.88
2023-11-20T18:56:30.027Z,72.00
2023-11-20T18:58:57.462Z,76.10
2023-11-20T19:01:24.896Z,71.75
2023-11-20T19:03:52.570Z,69.53
2023-11-20T19:06:21.385Z,73.50
2023-11-20T19:08:49.813Z,72.07
2023-11-20T19:11:17.422Z,74.05
2023-11-20T19:13:45.712Z,70.53
2023-11-20T19:16:13.625Z,74.75
2023-11-20T19:18:41.711Z,87.03
2023-11-20T19:21:09.289Z,83.47
2023-11-20T19:23:37.638Z,84.45
2023-11-20T19:26:06.462Z,89.15
2023-11-20T19:28:33.836Z,80.65
2023-11-20T19:31:01.259Z,79.22
2023-11-20T19:33:28.699Z,83.17
2023-11-20T19:35:56.044Z,76.72
2023-11-20T19:38:23.370Z,79.43
2023-11-20T19:40:50.716Z,86.28
2023-11-20T19:43:21.277Z,83.38
2023-11-20T19:45:49.033Z,80.80
2023-11-20T19:48:16.435Z,88.72
2023-11-20T19:50:43.977Z,88.82
2023-11-20T19:53:14.603Z,91.93
2023-11-20T19:55:43.002Z,85.93
2023-11-20T19:58:11.242Z,93.17
2023-11-20T20:00:38.618Z,88.15
2023-11-20T20:03:06.080Z,100.10
2023-11-20T20:05:33.507Z,90.10
2023-11-20T20:08:01.448Z,84.10
2023-11-20T20:10:28.881Z,82.07
2023-11-20T20:12:56.555Z,85.75
2023-11-20T20:15:24.431Z,79.15
2023-11-20T20:17:55.055Z,79.10
2023-11-20T20:20:24.456Z,73.80
2023-11-20T20:22:53.063Z,87.23
2023-11-20T20:25:21.014Z,95.72
2023-11-20T20:27:49.005Z,90.00
2023-11-20T20:30:16.498Z,78.80
2023-11-20T20:32:43.920Z,84.30
2023-11-20T20:35:11.538Z,81.77
2023-11-20T20:37:40.036Z,89.03
2023-11-20T20:40:08.199Z,87.50
2023-11-20T20:42:35.661Z,84.38
2023-11-20T20:45:03.148Z,84.95
2023-11-20T20:47:30.566Z,95.13
2023-11-20T20:49:58.032Z,90.93
2023-11-20T20:52:27.739Z,85.15
2023-11-20T20:54:59.566Z,83.10
2023-11-20T20:57:27.259Z,96.60
2023-11-20T20:59:54.667Z,84.60
2023-11-20T21:02:22.052Z,106.30
2023-11-20T21:04:49.418Z,112.65
2023-11-20T21:07:16.811Z,110.80
2023-11-20T21:09:44.236Z,114.50
2023-11-20T21:12:11.516Z,100.60
2023-11-20T21:14:38.818Z,107.65
2023-11-20T21:17:06.130Z,116.88
2023-11-20T21:19:34.597Z,115.63
2023-11-20T21:22:02.177Z,108.68
2023-11-20T21:24:29.514Z,116.30
2023-11-20T21:26:56.848Z,102.72
2023-11-20T21:29:24.235Z,90.65
2023-11-20T21:31:51.585Z,101.75
2023-11-20T21:34:19.146Z,102.18
2023-11-20T21:36:46.510Z,107.40
2023-11-20T21:39:19.523Z,117.97
2023-11-20T21:41:47.823Z,116.95
2023-11-20T21:44:18.713Z,106.78
2023-11-20T21:46:46.303Z,109.40
2023-11-20T21:49:13.826Z,103.63
2023-11-20T21:51:41.206Z,115.85
2023-11-20T21:54:09.090Z,109.65
2023-11-20T21:56:39.027Z,101.97
2023-11-20T21:59:06.532Z,103.88
2023-11-20T22:01:34.083Z,114.40
2023-11-20T22:04:01.452Z,120.45
2023-11-20T22:06:28.792Z,116.72
2023-11-20T22:08:56.214Z,109.20
2023-11-20T22:11:23.532Z,108.03
2023-11-20T22:13:51.340Z,111.00
2023-11-20T22:16:18.774Z,111.97
2023-11-20T22:18:46.298Z,110.03
2023-11-20T22:21:13.844Z,94.43
2023-11-20T22:23:42.289Z,107.70
2023-11-20T22:26:10.220Z,97.50
2023-11-20T22:28:38.592Z,115.72
2023-11-20T22:31:06.943Z,108.97
2023-11-20T22:33:34.545Z,106.72
2023-11-20T22:36:06.201Z,110.53
2023-11-20T22:38:36.266Z,112.43
2023-11-20T22:41:07.507Z,99.30
2023-11-20T22:43:35.138Z,108.05
2023-11-20T22:46:02.558Z,101.72
2023-11-20T22:48:29.971Z,105.43
2023-11-20T22:50:57.526Z,91.77
2023-11-20T22:53:24.955Z,98.72
2023-11-20T22:55:52.370Z,105.53
2023-11-20T22:58:19.834Z,96.35
2023-11-20T23:00:50.738Z,101.95
2023-11-20T23:03:18.590Z,98.10
2023-11-20T23:05:46.752Z,94.40
2023-11-20T23:08:15.031Z,94.28
2023-11-20T23:10:43.585Z,84.93
2023-11-20T23:13:11.036Z,87.20
2023-11-20T23:15:38.695Z,83.53
2023-11-20T23:18:06.912Z,86.20
2023-11-20T23:20:38.144Z,85.43
2023-11-20T23:23:05.552Z,89.05
2023-11-20T23:25:32.983Z,81.80
2023-11-20T23:28:01.926Z,88.60
2023-11-20T23:30:29.304Z,87.28
2023-11-20T23:32:56.598Z,94.18
2023-11-20T23:35:23.978Z,80.35
2023-11-20T23:37:51.730Z,86.55
2023-11-20T23:40:19.234Z,86.47
2023-11-20T23:42:46.717Z,94.97
2023-11-20T23:45:15.132Z,98.57
2023-11-20T23:47:42.962Z,87.03
2023-11-20T23:50:10.918Z,90.13
2023-11-20T23:52:39.244Z,85.00
2023-11-20T23:55:07.098Z,86.78
2023-11-20T23:57:34.491Z,83.05
